sensor_id;sensor_type;location;lat;lon;timestamp;temperature;humidity
80232;DHT22;70197;42.124;24.752;2023-10-31T00:01:20;15.80;47.50
80232;DHT22;70197;42.124;24.752;2023-10-31T00:03:46;15.90;47.60
80232;DHT22;70197;42.124;24.752;2023-10-31T00:06:12;15.80;47.70
80232;DHT22;70197;42.124;24.752;2023-10-31T00:08:37;15.80;47.70
80232;DHT22;70197;42.124;24.752;2023-10-31T00:11:03;15.80;47.80
80232;DHT22;70197;42.124;24.752;2023-10-31T00:13:29;15.80;47.90
80232;DHT22;70197;42.124;24.752;2023-10-31T00:15:55;15.80;49.00
80232;DHT22;70197;42.124;24.752;2023-10-31T00:18:20;15.70;48.00
80232;DHT22;70197;42.124;24.752;2023-10-31T00:20:46;15.70;48.20
80232;DHT22;70197;42.124;24.752;2023-10-31T00:23:12;15.70;48.40
80232;DHT22;70197;42.124;24.752;2023-10-31T00:25:38;15.70;48.60
80232;DHT22;70197;42.124;24.752;2023-10-31T00:28:03;15.70;48.70
80232;DHT22;70197;42.124;24.752;2023-10-31T00:30:29;15.70;48.80
80232;DHT22;70197;42.124;24.752;2023-10-31T00:32:55;15.70;48.70
80232;DHT22;70197;42.124;24.752;2023-10-31T00:35:20;15.70;48.10
80232;DHT22;70197;42.124;24.752;2023-10-31T00:37:46;15.70;47.90
80232;DHT22;70197;42.124;24.752;2023-10-31T00:40:12;15.60;48.10
80232;DHT22;70197;42.124;24.752;2023-10-31T00:42:38;15.60;48.50
80232;DHT22;70197;42.124;24.752;2023-10-31T00:45:04;15.60;48.80
80232;DHT22;70197;42.124;24.752;2023-10-31T00:47:30;15.50;48.80
80232;DHT22;70197;42.124;24.752;2023-10-31T00:49:56;15.50;48.70
80232;DHT22;70197;42.124;24.752;2023-10-31T00:52:21;15.60;48.60
80232;DHT22;70197;42.124;24.752;2023-10-31T00:54:47;15.50;48.30
80232;DHT22;70197;42.124;24.752;2023-10-31T00:57:13;15.50;48.30
80232;DHT22;70197;42.124;24.752;2023-10-31T00:59:38;15.50;48.80
80232;DHT22;70197;42.124;24.752;2023-10-31T01:02:04;15.50;48.70
80232;DHT22;70197;42.124;24.752;2023-10-31T01:04:30;15.50;48.80
80232;DHT22;70197;42.124;24.752;2023-10-31T01:06:56;15.50;48.80
80232;DHT22;70197;42.124;24.752;2023-10-31T01:09:22;15.50;48.90
80232;DHT22;70197;42.124;24.752;2023-10-31T01:11:48;15.40;48.90
80232;DHT22;70197;42.124;24.752;2023-10-31T01:14:14;15.40;48.80
80232;DHT22;70197;42.124;24.752;2023-10-31T01:16:40;15.40;48.80
80232;DHT22;70197;42.124;24.752;2023-10-31T01:19:06;15.40;49.20
80232;DHT22;70197;42.124;24.752;2023-10-31T01:21:33;15.40;49.80
80232;DHT22;70197;42.124;24.752;2023-10-31T01:23:59;15.40;49.80
80232;DHT22;70197;42.124;24.752;2023-10-31T01:26:25;15.40;49.70
80232;DHT22;70197;42.124;24.752;2023-10-31T01:28:52;15.40;49.80
80232;DHT22;70197;42.124;24.752;2023-10-31T01:31:18;15.40;49.60
80232;DHT22;70197;42.124;24.752;2023-10-31T01:33:45;15.40;49.60
80232;DHT22;70197;42.124;24.752;2023-10-31T01:36:10;15.50;49.50
80232;DHT22;70197;42.124;24.752;2023-10-31T01:38:38;15.40;49.60
80232;DHT22;70197;42.124;24.752;2023-10-31T01:41:03;15.40;49.70
80232;DHT22;70197;42.124;24.752;2023-10-31T01:43:35;15.40;49.60
80232;DHT22;70197;42.124;24.752;2023-10-31T01:46:01;15.40;49.40
80232;DHT22;70197;42.124;24.752;2023-10-31T01:48:32;15.40;49.60
80232;DHT22;70197;42.124;24.752;2023-10-31T01:51:03;15.40;49.50
80232;DHT22;70197;42.124;24.752;2023-10-31T01:53:34;15.40;49.40
80232;DHT22;70197;42.124;24.752;2023-10-31T01:56:00;15.40;49.20
80232;DHT22;70197;42.124;24.752;2023-10-31T01:58:39;15.30;49.30
80232;DHT22;70197;42.124;24.752;2023-10-31T02:01:05;15.30;49.40
80232;DHT22;70197;42.124;24.752;2023-10-31T02:03:32;15.40;49.20
80232;DHT22;70197;42.124;24.752;2023-10-31T02:05:58;15.30;49.30
80232;DHT22;70197;42.124;24.752;2023-10-31T02:08:27;15.30;49.60
80232;DHT22;70197;42.124;24.752;2023-10-31T02:10:53;15.30;49.70
80232;DHT22;70197;42.124;24.752;2023-10-31T02:13:19;15.30;49.60
80232;DHT22;70197;42.124;24.752;2023-10-31T02:15:45;15.30;49.60
80232;DHT22;70197;42.124;24.752;2023-10-31T02:18:11;15.30;49.50
80232;DHT22;70197;42.124;24.752;2023-10-31T02:20:37;15.30;50.70
80232;DHT22;70197;42.124;24.752;2023-10-31T02:23:03;15.20;49.60
80232;DHT22;70197;42.124;24.752;2023-10-31T02:25:29;15.20;49.60
80232;DHT22;70197;42.124;24.752;2023-10-31T02:27:55;15.20;49.70
80232;DHT22;70197;42.124;24.752;2023-10-31T02:30:21;15.20;49.80
80232;DHT22;70197;42.124;24.752;2023-10-31T02:32:47;15.20;49.90
80232;DHT22;70197;42.124;24.752;2023-10-31T02:35:15;15.20;49.80
80232;DHT22;70197;42.124;24.752;2023-10-31T02:37:41;15.20;49.90
80232;DHT22;70197;42.124;24.752;2023-10-31T02:40:07;15.20;50.00
80232;DHT22;70197;42.124;24.752;2023-10-31T02:42:34;15.20;49.90
80232;DHT22;70197;42.124;24.752;2023-10-31T02:45:00;15.20;49.90
80232;DHT22;70197;42.124;24.752;2023-10-31T02:47:25;15.20;50.20
80232;DHT22;70197;42.124;24.752;2023-10-31T02:49:51;15.10;50.70
80232;DHT22;70197;42.124;24.752;2023-10-31T02:52:16;15.20;51.00
80232;DHT22;70197;42.124;24.752;2023-10-31T02:54:42;15.20;51.00
80232;DHT22;70197;42.124;24.752;2023-10-31T02:57:08;15.20;50.50
80232;DHT22;70197;42.124;24.752;2023-10-31T02:59:34;15.20;51.80
80232;DHT22;70197;42.124;24.752;2023-10-31T03:02:00;15.20;50.10
80232;DHT22;70197;42.124;24.752;2023-10-31T03:04:25;15.20;49.70
80232;DHT22;70197;42.124;24.752;2023-10-31T03:06:51;15.20;50.00
80232;DHT22;70197;42.124;24.752;2023-10-31T03:09:17;15.30;50.60
80232;DHT22;70197;42.124;24.752;2023-10-31T03:11:42;15.20;50.20
80232;DHT22;70197;42.124;24.752;2023-10-31T03:14:08;15.20;49.70
80232;DHT22;70197;42.124;24.752;2023-10-31T03:16:33;15.20;50.10
80232;DHT22;70197;42.124;24.752;2023-10-31T03:18:59;15.20;50.30
80232;DHT22;70197;42.124;24.752;2023-10-31T03:21:25;15.10;49.80
80232;DHT22;70197;42.124;24.752;2023-10-31T03:23:51;15.10;49.90
80232;DHT22;70197;42.124;24.752;2023-10-31T03:26:19;15.10;50.20
80232;DHT22;70197;42.124;24.752;2023-10-31T03:28:45;15.00;50.10
80232;DHT22;70197;42.124;24.752;2023-10-31T03:31:12;15.00;49.80
80232;DHT22;70197;42.124;24.752;2023-10-31T03:33:38;15.00;50.60
80232;DHT22;70197;42.124;24.752;2023-10-31T03:36:04;15.00;49.70
80232;DHT22;70197;42.124;24.752;2023-10-31T03:38:34;15.00;49.30
80232;DHT22;70197;42.124;24.752;2023-10-31T03:41:00;14.90;49.20
80232;DHT22;70197;42.124;24.752;2023-10-31T03:43:26;14.90;49.60
80232;DHT22;70197;42.124;24.752;2023-10-31T03:45:52;14.80;50.40
80232;DHT22;70197;42.124;24.752;2023-10-31T03:48:18;14.80;50.10
80232;DHT22;70197;42.124;24.752;2023-10-31T03:50:44;14.90;51.20
80232;DHT22;70197;42.124;24.752;2023-10-31T03:53:10;14.80;50.30
80232;DHT22;70197;42.124;24.752;2023-10-31T03:55:35;14.80;50.50
80232;DHT22;70197;42.124;24.752;2023-10-31T03:58:01;14.80;50.30
80232;DHT22;70197;42.124;24.752;2023-10-31T04:00:27;14.80;49.90
80232;DHT22;70197;42.124;24.752;2023-10-31T04:02:53;14.80;50.90
80232;DHT22;70197;42.124;24.752;2023-10-31T04:05:18;14.70;52.20
80232;DHT22;70197;42.124;24.752;2023-10-31T04:07:46;14.80;53.90
80232;DHT22;70197;42.124;24.752;2023-10-31T04:10:12;14.80;53.60
80232;DHT22;70197;42.124;24.752;2023-10-31T04:12:38;14.70;52.90
80232;DHT22;70197;42.124;24.752;2023-10-31T04:15:04;14.70;53.00
80232;DHT22;70197;42.124;24.752;2023-10-31T04:17:30;14.70;52.90
80232;DHT22;70197;42.124;24.752;2023-10-31T04:19:56;14.60;52.90
80232;DHT22;70197;42.124;24.752;2023-10-31T04:22:22;14.60;52.90
80232;DHT22;70197;42.124;24.752;2023-10-31T04:24:47;14.70;53.10
80232;DHT22;70197;42.124;24.752;2023-10-31T04:27:13;14.70;53.00
80232;DHT22;70197;42.124;24.752;2023-10-31T04:29:39;14.70;52.70
80232;DHT22;70197;42.124;24.752;2023-10-31T04:32:05;14.60;52.70
80232;DHT22;70197;42.124;24.752;2023-10-31T04:34:30;14.60;52.10
80232;DHT22;70197;42.124;24.752;2023-10-31T04:36:56;14.70;52.50
80232;DHT22;70197;42.124;24.752;2023-10-31T04:39:22;14.70;52.20
80232;DHT22;70197;42.124;24.752;2023-10-31T04:41:47;14.70;52.20
80232;DHT22;70197;42.124;24.752;2023-10-31T04:44:13;14.70;51.80
80232;DHT22;70197;42.124;24.752;2023-10-31T04:46:39;14.70;51.50
80232;DHT22;70197;42.124;24.752;2023-10-31T04:49:04;14.60;52.30
80232;DHT22;70197;42.124;24.752;2023-10-31T04:51:37;14.60;52.40
80232;DHT22;70197;42.124;24.752;2023-10-31T04:54:03;14.60;51.50
80232;DHT22;70197;42.124;24.752;2023-10-31T04:56:29;14.60;51.60
80232;DHT22;70197;42.124;24.752;2023-10-31T04:58:55;14.50;52.00
80232;DHT22;70197;42.124;24.752;2023-10-31T05:01:21;14.50;51.20
80232;DHT22;70197;42.124;24.752;2023-10-31T05:03:46;14.40;52.70
80232;DHT22;70197;42.124;24.752;2023-10-31T05:06:12;14.50;51.80
80232;DHT22;70197;42.124;24.752;2023-10-31T05:08:38;14.50;51.70
80232;DHT22;70197;42.124;24.752;2023-10-31T05:11:03;14.50;52.20
80232;DHT22;70197;42.124;24.752;2023-10-31T05:13:29;14.50;52.80
80232;DHT22;70197;42.124;24.752;2023-10-31T05:15:55;14.50;52.20
80232;DHT22;70197;42.124;24.752;2023-10-31T05:18:21;14.50;51.40
80232;DHT22;70197;42.124;24.752;2023-10-31T05:20:47;14.50;51.50
80232;DHT22;70197;42.124;24.752;2023-10-31T05:23:13;14.50;52.10
80232;DHT22;70197;42.124;24.752;2023-10-31T05:25:39;14.60;53.00
80232;DHT22;70197;42.124;24.752;2023-10-31T05:28:05;14.70;52.00
80232;DHT22;70197;42.124;24.752;2023-10-31T05:30:30;14.70;52.20
80232;DHT22;70197;42.124;24.752;2023-10-31T05:32:56;14.80;52.60
80232;DHT22;70197;42.124;24.752;2023-10-31T05:35:22;14.90;52.80
80232;DHT22;70197;42.124;24.752;2023-10-31T05:37:48;15.00;52.40
80232;DHT22;70197;42.124;24.752;2023-10-31T05:40:15;15.10;51.80
80232;DHT22;70197;42.124;24.752;2023-10-31T05:42:41;15.20;51.70
80232;DHT22;70197;42.124;24.752;2023-10-31T05:45:07;15.40;51.20
80232;DHT22;70197;42.124;24.752;2023-10-31T05:47:33;15.50;51.10
80232;DHT22;70197;42.124;24.752;2023-10-31T05:49:59;15.60;51.50
80232;DHT22;70197;42.124;24.752;2023-10-31T05:52:28;15.70;51.30
80232;DHT22;70197;42.124;24.752;2023-10-31T05:54:55;15.90;51.50
80232;DHT22;70197;42.124;24.752;2023-10-31T05:57:21;16.00;51.30
80232;DHT22;70197;42.124;24.752;2023-10-31T05:59:46;16.20;51.00
80232;DHT22;70197;42.124;24.752;2023-10-31T06:02:13;16.30;49.90
80232;DHT22;70197;42.124;24.752;2023-10-31T06:04:39;16.30;49.70
80232;DHT22;70197;42.124;24.752;2023-10-31T06:07:05;16.40;49.50
80232;DHT22;70197;42.124;24.752;2023-10-31T06:09:31;16.50;49.10
80232;DHT22;70197;42.124;24.752;2023-10-31T06:11:58;16.70;48.80
80232;DHT22;70197;42.124;24.752;2023-10-31T06:14:24;16.90;48.50
80232;DHT22;70197;42.124;24.752;2023-10-31T06:16:51;17.00;48.00
80232;DHT22;70197;42.124;24.752;2023-10-31T06:19:17;17.20;47.80
80232;DHT22;70197;42.124;24.752;2023-10-31T06:21:43;17.30;47.60
80232;DHT22;70197;42.124;24.752;2023-10-31T06:24:09;17.50;47.10
80232;DHT22;70197;42.124;24.752;2023-10-31T06:26:35;17.60;46.50
80232;DHT22;70197;42.124;24.752;2023-10-31T06:29:01;17.80;46.10
80232;DHT22;70197;42.124;24.752;2023-10-31T06:31:26;18.00;45.40
80232;DHT22;70197;42.124;24.752;2023-10-31T06:33:52;18.00;44.90
80232;DHT22;70197;42.124;24.752;2023-10-31T06:36:18;18.20;44.80
80232;DHT22;70197;42.124;24.752;2023-10-31T06:38:43;18.30;44.30
80232;DHT22;70197;42.124;24.752;2023-10-31T06:41:09;18.40;44.00
80232;DHT22;70197;42.124;24.752;2023-10-31T06:43:35;18.60;43.50
80232;DHT22;70197;42.124;24.752;2023-10-31T06:46:00;18.60;42.90
80232;DHT22;70197;42.124;24.752;2023-10-31T06:48:28;18.80;43.00
80232;DHT22;70197;42.124;24.752;2023-10-31T06:50:54;18.90;42.70
80232;DHT22;70197;42.124;24.752;2023-10-31T06:53:19;19.10;42.30
80232;DHT22;70197;42.124;24.752;2023-10-31T06:55:45;19.20;41.90
80232;DHT22;70197;42.124;24.752;2023-10-31T06:58:11;19.30;41.50
80232;DHT22;70197;42.124;24.752;2023-10-31T07:00:36;19.40;41.30
80232;DHT22;70197;42.124;24.752;2023-10-31T07:03:03;19.50;41.10
80232;DHT22;70197;42.124;24.752;2023-10-31T07:05:37;19.60;41.20
80232;DHT22;70197;42.124;24.752;2023-10-31T07:08:03;19.70;41.00
80232;DHT22;70197;42.124;24.752;2023-10-31T07:10:30;19.80;41.10
80232;DHT22;70197;42.124;24.752;2023-10-31T07:12:55;19.90;40.90
80232;DHT22;70197;42.124;24.752;2023-10-31T07:15:21;19.90;40.60
80232;DHT22;70197;42.124;24.752;2023-10-31T07:17:47;19.90;40.60
80232;DHT22;70197;42.124;24.752;2023-10-31T07:20:13;19.90;40.40
80232;DHT22;70197;42.124;24.752;2023-10-31T07:22:39;20.10;40.10
80232;DHT22;70197;42.124;24.752;2023-10-31T07:25:06;20.10;39.90
80232;DHT22;70197;42.124;24.752;2023-10-31T07:27:32;20.20;39.90
80232;DHT22;70197;42.124;24.752;2023-10-31T07:29:57;20.20;39.80
80232;DHT22;70197;42.124;24.752;2023-10-31T07:32:23;20.30;39.80
80232;DHT22;70197;42.124;24.752;2023-10-31T07:34:49;20.40;39.90
80232;DHT22;70197;42.124;24.752;2023-10-31T07:37:15;20.50;39.80
80232;DHT22;70197;42.124;24.752;2023-10-31T07:39:40;20.50;39.60
80232;DHT22;70197;42.124;24.752;2023-10-31T07:42:07;20.50;39.60
80232;DHT22;70197;42.124;24.752;2023-10-31T07:44:33;20.50;39.80
80232;DHT22;70197;42.124;24.752;2023-10-31T07:46:58;20.50;40.00
80232;DHT22;70197;42.124;24.752;2023-10-31T07:49:24;20.40;40.10
80232;DHT22;70197;42.124;24.752;2023-10-31T07:51:50;20.30;40.50
80232;DHT22;70197;42.124;24.752;2023-10-31T07:54:15;20.20;40.90
80232;DHT22;70197;42.124;24.752;2023-10-31T07:56:42;20.10;41.20
80232;DHT22;70197;42.124;24.752;2023-10-31T07:59:07;20.00;41.50
80232;DHT22;70197;42.124;24.752;2023-10-31T08:01:34;19.90;41.90
80232;DHT22;70197;42.124;24.752;2023-10-31T08:04:00;19.80;42.20
80232;DHT22;70197;42.124;24.752;2023-10-31T08:06:26;19.70;42.70
80232;DHT22;70197;42.124;24.752;2023-10-31T08:08:51;19.70;44.20
80232;DHT22;70197;42.124;24.752;2023-10-31T08:11:18;19.60;43.50
80232;DHT22;70197;42.124;24.752;2023-10-31T08:13:44;19.60;43.40
80232;DHT22;70197;42.124;24.752;2023-10-31T08:16:10;19.50;43.40
80232;DHT22;70197;42.124;24.752;2023-10-31T08:18:35;19.40;43.30
80232;DHT22;70197;42.124;24.752;2023-10-31T08:21:02;19.30;43.30
80232;DHT22;70197;42.124;24.752;2023-10-31T08:23:28;19.20;43.90
80232;DHT22;70197;42.124;24.752;2023-10-31T08:25:54;19.20;44.00
80232;DHT22;70197;42.124;24.752;2023-10-31T08:28:20;19.10;44.30
80232;DHT22;70197;42.124;24.752;2023-10-31T08:30:46;19.10;44.60
80232;DHT22;70197;42.124;24.752;2023-10-31T08:33:12;19.10;44.80
80232;DHT22;70197;42.124;24.752;2023-10-31T08:35:38;19.10;44.80
80232;DHT22;70197;42.124;24.752;2023-10-31T08:38:04;19.10;44.50
80232;DHT22;70197;42.124;24.752;2023-10-31T08:40:29;19.10;44.50
80232;DHT22;70197;42.124;24.752;2023-10-31T08:42:55;19.10;44.40
80232;DHT22;70197;42.124;24.752;2023-10-31T08:45:21;19.10;44.50
80232;DHT22;70197;42.124;24.752;2023-10-31T08:47:47;19.00;45.20
80232;DHT22;70197;42.124;24.752;2023-10-31T08:50:12;19.00;45.40
80232;DHT22;70197;42.124;24.752;2023-10-31T08:52:39;19.00;45.20
80232;DHT22;70197;42.124;24.752;2023-10-31T08:55:05;19.00;45.00
80232;DHT22;70197;42.124;24.752;2023-10-31T08:57:31;19.00;44.40
80232;DHT22;70197;42.124;24.752;2023-10-31T08:59:59;19.00;44.40
80232;DHT22;70197;42.124;24.752;2023-10-31T09:02:24;19.00;44.50
80232;DHT22;70197;42.124;24.752;2023-10-31T09:04:50;18.90;44.20
80232;DHT22;70197;42.124;24.752;2023-10-31T09:07:16;18.80;43.50
80232;DHT22;70197;42.124;24.752;2023-10-31T09:09:41;18.90;43.40
80232;DHT22;70197;42.124;24.752;2023-10-31T09:12:07;18.90;43.20
80232;DHT22;70197;42.124;24.752;2023-10-31T09:14:33;18.80;43.50
80232;DHT22;70197;42.124;24.752;2023-10-31T09:16:58;18.70;43.30
80232;DHT22;70197;42.124;24.752;2023-10-31T09:19:24;18.80;43.50
80232;DHT22;70197;42.124;24.752;2023-10-31T09:21:50;18.90;43.10
80232;DHT22;70197;42.124;24.752;2023-10-31T09:24:15;18.90;43.00
80232;DHT22;70197;42.124;24.752;2023-10-31T09:26:44;19.00;42.70
80232;DHT22;70197;42.124;24.752;2023-10-31T09:29:13;19.00;42.00
80232;DHT22;70197;42.124;24.752;2023-10-31T09:31:38;19.00;41.60
80232;DHT22;70197;42.124;24.752;2023-10-31T09:34:04;19.00;41.70
80232;DHT22;70197;42.124;24.752;2023-10-31T09:36:33;19.10;41.70
80232;DHT22;70197;42.124;24.752;2023-10-31T09:39:02;19.10;41.80
80232;DHT22;70197;42.124;24.752;2023-10-31T09:41:29;19.10;42.00
80232;DHT22;70197;42.124;24.752;2023-10-31T09:43:55;19.10;42.10
80232;DHT22;70197;42.124;24.752;2023-10-31T09:46:21;19.10;41.60
80232;DHT22;70197;42.124;24.752;2023-10-31T09:48:49;19.10;40.60
80232;DHT22;70197;42.124;24.752;2023-10-31T09:51:14;19.20;40.60
80232;DHT22;70197;42.124;24.752;2023-10-31T09:53:42;19.20;41.20
80232;DHT22;70197;42.124;24.752;2023-10-31T09:56:09;19.10;41.40
80232;DHT22;70197;42.124;24.752;2023-10-31T09:58:35;19.10;41.50
80232;DHT22;70197;42.124;24.752;2023-10-31T10:01:01;19.20;41.40
80232;DHT22;70197;42.124;24.752;2023-10-31T10:03:27;19.10;41.40
80232;DHT22;70197;42.124;24.752;2023-10-31T10:05:53;19.10;41.30
80232;DHT22;70197;42.124;24.752;2023-10-31T10:08:22;19.20;41.10
80232;DHT22;70197;42.124;24.752;2023-10-31T10:10:48;19.20;41.40
80232;DHT22;70197;42.124;24.752;2023-10-31T10:13:17;19.10;40.90
80232;DHT22;70197;42.124;24.752;2023-10-31T10:15:48;19.20;41.40
80232;DHT22;70197;42.124;24.752;2023-10-31T10:18:31;19.20;40.90
80232;DHT22;70197;42.124;24.752;2023-10-31T10:20:59;19.30;40.50
80232;DHT22;70197;42.124;24.752;2023-10-31T10:23:26;19.30;40.60
80232;DHT22;70197;42.124;24.752;2023-10-31T10:25:53;19.30;38.90
80232;DHT22;70197;42.124;24.752;2023-10-31T10:28:19;19.30;39.10
80232;DHT22;70197;42.124;24.752;2023-10-31T10:30:48;19.30;39.80
80232;DHT22;70197;42.124;24.752;2023-10-31T10:33:17;19.30;40.20
80232;DHT22;70197;42.124;24.752;2023-10-31T10:35:44;19.40;40.20
80232;DHT22;70197;42.124;24.752;2023-10-31T10:38:15;19.50;40.20
80232;DHT22;70197;42.124;24.752;2023-10-31T10:40:43;19.50;39.90
80232;DHT22;70197;42.124;24.752;2023-10-31T10:43:19;19.60;39.90
80232;DHT22;70197;42.124;24.752;2023-10-31T10:45:46;19.60;39.10
80232;DHT22;70197;42.124;24.752;2023-10-31T10:48:15;19.60;39.30
80232;DHT22;70197;42.124;24.752;2023-10-31T10:50:43;19.70;39.00
80232;DHT22;70197;42.124;24.752;2023-10-31T10:53:16;19.70;38.90
80232;DHT22;70197;42.124;24.752;2023-10-31T10:55:51;19.70;38.40
80232;DHT22;70197;42.124;24.752;2023-10-31T10:58:41;19.60;38.50
80232;DHT22;70197;42.124;24.752;2023-10-31T11:01:10;19.70;38.60
80232;DHT22;70197;42.124;24.752;2023-10-31T11:03:36;19.70;38.50
80232;DHT22;70197;42.124;24.752;2023-10-31T11:06:03;19.70;37.70
80232;DHT22;70197;42.124;24.752;2023-10-31T11:08:30;19.70;37.70
80232;DHT22;70197;42.124;24.752;2023-10-31T11:10:57;19.80;37.30
80232;DHT22;70197;42.124;24.752;2023-10-31T11:13:23;19.80;36.20
80232;DHT22;70197;42.124;24.752;2023-10-31T11:15:52;19.80;36.10
80232;DHT22;70197;42.124;24.752;2023-10-31T11:18:20;19.80;36.10
80232;DHT22;70197;42.124;24.752;2023-10-31T11:20:46;19.80;37.20
80232;DHT22;70197;42.124;24.752;2023-10-31T11:23:12;19.90;40.70
80232;DHT22;70197;42.124;24.752;2023-10-31T11:25:43;19.90;42.00
80232;DHT22;70197;42.124;24.752;2023-10-31T11:28:15;20.00;47.50
80232;DHT22;70197;42.124;24.752;2023-10-31T11:30:42;20.10;47.60
80232;DHT22;70197;42.124;24.752;2023-10-31T11:33:15;20.10;45.90
80232;DHT22;70197;42.124;24.752;2023-10-31T11:35:42;20.10;46.00
80232;DHT22;70197;42.124;24.752;2023-10-31T11:38:11;20.00;41.00
80232;DHT22;70197;42.124;24.752;2023-10-31T11:43:15;20.00;45.20
80232;DHT22;70197;42.124;24.752;2023-10-31T11:45:42;20.00;41.80
80232;DHT22;70197;42.124;24.752;2023-10-31T11:48:10;20.00;45.30
80232;DHT22;70197;42.124;24.752;2023-10-31T11:50:37;20.00;48.10
80232;DHT22;70197;42.124;24.752;2023-10-31T11:53:10;20.00;47.80
80232;DHT22;70197;42.124;24.752;2023-10-31T11:55:43;20.00;47.80
80232;DHT22;70197;42.124;24.752;2023-10-31T11:58:22;20.00;47.50
80232;DHT22;70197;42.124;24.752;2023-10-31T12:00:50;20.00;47.90
80232;DHT22;70197;42.124;24.752;2023-10-31T12:03:18;19.90;48.00
80232;DHT22;70197;42.124;24.752;2023-10-31T12:05:58;19.90;48.00
80232;DHT22;70197;42.124;24.752;2023-10-31T12:08:33;19.90;48.50
80232;DHT22;70197;42.124;24.752;2023-10-31T12:11:19;19.90;48.60
80232;DHT22;70197;42.124;24.752;2023-10-31T12:13:59;19.90;48.30
80232;DHT22;70197;42.124;24.752;2023-10-31T12:16:30;19.80;47.80
80232;DHT22;70197;42.124;24.752;2023-10-31T12:19:01;19.80;47.30
80232;DHT22;70197;42.124;24.752;2023-10-31T12:21:44;19.80;48.40
80232;DHT22;70197;42.124;24.752;2023-10-31T12:24:14;19.80;48.00
80232;DHT22;70197;42.124;24.752;2023-10-31T12:26:41;19.80;47.30
80232;DHT22;70197;42.124;24.752;2023-10-31T12:29:17;19.80;48.20
80232;DHT22;70197;42.124;24.752;2023-10-31T12:31:44;19.80;49.00
80232;DHT22;70197;42.124;24.752;2023-10-31T12:34:18;19.80;49.60
80232;DHT22;70197;42.124;24.752;2023-10-31T12:36:46;19.80;49.70
80232;DHT22;70197;42.124;24.752;2023-10-31T12:39:12;19.80;49.20
80232;DHT22;70197;42.124;24.752;2023-10-31T12:41:41;19.80;50.30
80232;DHT22;70197;42.124;24.752;2023-10-31T12:44:08;19.80;48.30
80232;DHT22;70197;42.124;24.752;2023-10-31T12:46:39;19.80;49.10
80232;DHT22;70197;42.124;24.752;2023-10-31T12:49:10;19.80;48.00
80232;DHT22;70197;42.124;24.752;2023-10-31T12:51:36;19.80;45.60
80232;DHT22;70197;42.124;24.752;2023-10-31T12:54:01;19.80;47.80
80232;DHT22;70197;42.124;24.752;2023-10-31T12:56:40;19.80;49.00
80232;DHT22;70197;42.124;24.752;2023-10-31T12:59:07;19.80;46.10
80232;DHT22;70197;42.124;24.752;2023-10-31T13:01:42;19.80;45.60
80232;DHT22;70197;42.124;24.752;2023-10-31T13:04:08;19.80;47.10
80232;DHT22;70197;42.124;24.752;2023-10-31T13:06:33;19.80;48.50
80232;DHT22;70197;42.124;24.752;2023-10-31T13:08:59;19.80;48.80
80232;DHT22;70197;42.124;24.752;2023-10-31T13:11:29;19.80;48.80
80232;DHT22;70197;42.124;24.752;2023-10-31T13:13:55;19.80;48.80
80232;DHT22;70197;42.124;24.752;2023-10-31T13:16:21;19.80;49.00
80232;DHT22;70197;42.124;24.752;2023-10-31T13:18:46;19.80;50.80
80232;DHT22;70197;42.124;24.752;2023-10-31T13:21:13;19.80;48.70
80232;DHT22;70197;42.124;24.752;2023-10-31T13:23:42;19.80;48.70
80232;DHT22;70197;42.124;24.752;2023-10-31T13:26:13;19.80;49.00
80232;DHT22;70197;42.124;24.752;2023-10-31T13:28:39;19.80;48.80
80232;DHT22;70197;42.124;24.752;2023-10-31T13:31:06;19.80;49.40
80232;DHT22;70197;42.124;24.752;2023-10-31T13:33:33;19.80;49.80
80232;DHT22;70197;42.124;24.752;2023-10-31T13:35:58;19.80;49.90
80232;DHT22;70197;42.124;24.752;2023-10-31T13:38:24;19.80;49.80
80232;DHT22;70197;42.124;24.752;2023-10-31T13:40:50;19.80;49.60
80232;DHT22;70197;42.124;24.752;2023-10-31T13:43:15;19.80;49.60
80232;DHT22;70197;42.124;24.752;2023-10-31T13:45:41;19.80;49.80
80232;DHT22;70197;42.124;24.752;2023-10-31T13:48:07;19.80;49.80
80232;DHT22;70197;42.124;24.752;2023-10-31T13:50:32;19.80;49.60
80232;DHT22;70197;42.124;24.752;2023-10-31T13:52:59;19.80;49.10
80232;DHT22;70197;42.124;24.752;2023-10-31T13:55:24;19.80;48.80
80232;DHT22;70197;42.124;24.752;2023-10-31T13:57:51;19.80;46.20
80232;DHT22;70197;42.124;24.752;2023-10-31T14:00:16;19.80;47.20
80232;DHT22;70197;42.124;24.752;2023-10-31T14:02:42;19.80;48.50
80232;DHT22;70197;42.124;24.752;2023-10-31T14:05:08;19.80;48.50
80232;DHT22;70197;42.124;24.752;2023-10-31T14:07:33;19.80;48.90
80232;DHT22;70197;42.124;24.752;2023-10-31T14:10:00;19.80;49.70
80232;DHT22;70197;42.124;24.752;2023-10-31T14:12:26;19.80;49.80
80232;DHT22;70197;42.124;24.752;2023-10-31T14:14:53;19.80;50.20
80232;DHT22;70197;42.124;24.752;2023-10-31T14:17:19;19.80;49.90
80232;DHT22;70197;42.124;24.752;2023-10-31T14:19:45;19.80;49.70
80232;DHT22;70197;42.124;24.752;2023-10-31T14:22:12;19.80;49.90
80232;DHT22;70197;42.124;24.752;2023-10-31T14:24:38;19.80;50.10
80232;DHT22;70197;42.124;24.752;2023-10-31T14:27:04;19.80;50.30
80232;DHT22;70197;42.124;24.752;2023-10-31T14:29:29;19.80;50.70
80232;DHT22;70197;42.124;24.752;2023-10-31T14:31:55;19.80;50.90
80232;DHT22;70197;42.124;24.752;2023-10-31T14:34:23;19.70;51.10
80232;DHT22;70197;42.124;24.752;2023-10-31T14:36:48;19.70;51.30
80232;DHT22;70197;42.124;24.752;2023-10-31T14:39:15;19.70;50.40
80232;DHT22;70197;42.124;24.752;2023-10-31T14:41:40;19.60;50.70
80232;DHT22;70197;42.124;24.752;2023-10-31T14:44:06;19.60;50.50
80232;DHT22;70197;42.124;24.752;2023-10-31T14:46:33;19.60;50.50
80232;DHT22;70197;42.124;24.752;2023-10-31T14:48:59;19.60;50.70
80232;DHT22;70197;42.124;24.752;2023-10-31T14:51:25;19.60;50.80
80232;DHT22;70197;42.124;24.752;2023-10-31T14:53:51;19.60;50.60
80232;DHT22;70197;42.124;24.752;2023-10-31T14:56:17;19.50;49.30
80232;DHT22;70197;42.124;24.752;2023-10-31T14:58:42;19.50;50.30
80232;DHT22;70197;42.124;24.752;2023-10-31T15:01:08;19.40;50.30
80232;DHT22;70197;42.124;24.752;2023-10-31T15:03:34;19.40;48.60
80232;DHT22;70197;42.124;24.752;2023-10-31T15:05:59;19.40;49.90
80232;DHT22;70197;42.124;24.752;2023-10-31T15:08:25;19.40;50.30
80232;DHT22;70197;42.124;24.752;2023-10-31T15:10:52;19.40;50.80
80232;DHT22;70197;42.124;24.752;2023-10-31T15:13:17;19.30;51.00
80232;DHT22;70197;42.124;24.752;2023-10-31T15:15:43;19.30;50.20